sensor_id;sensor_type;location;lat;lon;timestamp;P1;durP1;ratioP1;P2;durP2;ratioP2
17917;SDS011;9084;50.956;3.106;2023-06-24T00:00:42;4.05;;;3.70;;
17917;SDS011;9084;50.956;3.106;2023-06-24T00:03:10;4.47;;;4.18;;
17917;SDS011;9084;50.956;3.106;2023-06-24T00:05:44;4.13;;;3.83;;
17917;SDS011;9084;50.956;3.106;2023-06-24T00:08:14;4.22;;;3.80;;
17917;SDS011;9084;50.956;3.106;2023-06-24T00:10:42;4.47;;;4.03;;
17917;SDS011;9084;50.956;3.106;2023-06-24T00:13:08;5.22;;;4.70;;
17917;SDS011;9084;50.956;3.106;2023-06-24T00:15:37;4.75;;;4.35;;
17917;SDS011;9084;50.956;3.106;2023-06-24T00:18:08;4.60;;;4.30;;
17917;SDS011;9084;50.956;3.106;2023-06-24T00:20:34;4.43;;;4.03;;
17917;SDS011;9084;50.956;3.106;2023-06-24T00:23:00;5.07;;;4.68;;
17917;SDS011;9084;50.956;3.106;2023-06-24T00:25:25;5.65;;;4.40;;
17917;SDS011;9084;50.956;3.106;2023-06-24T00:27:54;4.50;;;4.10;;
17917;SDS011;9084;50.956;3.106;2023-06-24T00:30:19;5.03;;;4.63;;
17917;SDS011;9084;50.956;3.106;2023-06-24T00:32:47;4.70;;;4.30;;
17917;SDS011;9084;50.956;3.106;2023-06-24T00:35:13;7.20;;;5.32;;
17917;SDS011;9084;50.956;3.106;2023-06-24T00:37:41;5.20;;;4.72;;
17917;SDS011;9084;50.956;3.106;2023-06-24T00:40:11;5.07;;;4.57;;
17917;SDS011;9084;50.956;3.106;2023-06-24T00:42:40;5.22;;;4.80;;
17917;SDS011;9084;50.956;3.106;2023-06-24T00:45:09;5.32;;;4.82;;
17917;SDS011;9084;50.956;3.106;2023-06-24T00:47:35;4.53;;;4.13;;
17917;SDS011;9084;50.956;3.106;2023-06-24T00:50:01;5.50;;;5.00;;
17917;SDS011;9084;50.956;3.106;2023-06-24T00:52:29;5.10;;;4.70;;
17917;SDS011;9084;50.956;3.106;2023-06-24T00:54:55;4.35;;;4.05;;
17917;SDS011;9084;50.956;3.106;2023-06-24T00:57:21;5.03;;;4.60;;
17917;SDS011;9084;50.956;3.106;2023-06-24T00:59:50;5.10;;;4.70;;
17917;SDS011;9084;50.956;3.106;2023-06-24T01:02:18;8.18;;;5.38;;
17917;SDS011;9084;50.956;3.106;2023-06-24T01:04:45;5.35;;;4.85;;
17917;SDS011;9084;50.956;3.106;2023-06-24T01:07:13;5.65;;;5.25;;
17917;SDS011;9084;50.956;3.106;2023-06-24T01:09:42;5.97;;;4.80;;
17917;SDS011;9084;50.956;3.106;2023-06-24T01:12:08;6.43;;;5.78;;
17917;SDS011;9084;50.956;3.106;2023-06-24T01:14:35;5.60;;;5.10;;
17917;SDS011;9084;50.956;3.106;2023-06-24T01:17:19;5.97;;;5.47;;
17917;SDS011;9084;50.956;3.106;2023-06-24T01:36:26;5.30;;;4.90;;
17917;SDS011;9084;50.956;3.106;2023-06-24T01:39:04;5.18;;;4.68;;
17917;SDS011;9084;50.956;3.106;2023-06-24T01:41:40;5.80;;;5.30;;
17917;SDS011;9084;50.956;3.106;2023-06-24T01:44:10;5.85;;;5.30;;
17917;SDS011;9084;50.956;3.106;2023-06-24T01:46:39;5.65;;;5.22;;
17917;SDS011;9084;50.956;3.106;2023-06-24T01:49:07;5.95;;;5.45;;
17917;SDS011;9084;50.956;3.106;2023-06-24T01:51:37;5.88;;;5.25;;
17917;SDS011;9084;50.956;3.106;2023-06-24T01:54:06;6.25;;;5.70;;
17917;SDS011;9084;50.956;3.106;2023-06-24T01:56:36;6.53;;;6.03;;
17917;SDS011;9084;50.956;3.106;2023-06-24T01:59:04;7.20;;;6.60;;
17917;SDS011;9084;50.956;3.106;2023-06-24T02:01:33;5.90;;;5.32;;
17917;SDS011;9084;50.956;3.106;2023-06-24T02:04:05;6.32;;;5.75;;
17917;SDS011;9084;50.956;3.106;2023-06-24T02:06:33;6.20;;;5.60;;
17917;SDS011;9084;50.956;3.106;2023-06-24T02:09:02;6.65;;;6.13;;
17917;SDS011;9084;50.956;3.106;2023-06-24T02:11:29;5.72;;;5.28;;
17917;SDS011;9084;50.956;3.106;2023-06-24T02:13:59;6.75;;;6.15;;
17917;SDS011;9084;50.956;3.106;2023-06-24T02:16:26;6.20;;;5.70;;
17917;SDS011;9084;50.956;3.106;2023-06-24T02:18:54;7.10;;;6.57;;
17917;SDS011;9084;50.956;3.106;2023-06-24T02:21:23;6.15;;;5.65;;
17917;SDS011;9084;50.956;3.106;2023-06-24T02:23:52;6.80;;;6.20;;
17917;SDS011;9084;50.956;3.106;2023-06-24T02:26:21;6.97;;;6.35;;
17917;SDS011;9084;50.956;3.106;2023-06-24T02:28:50;6.25;;;5.75;;
17917;SDS011;9084;50.956;3.106;2023-06-24T02:31:18;6.65;;;5.95;;
17917;SDS011;9084;50.956;3.106;2023-06-24T02:33:46;7.25;;;6.65;;
17917;SDS011;9084;50.956;3.106;2023-06-24T02:36:12;6.63;;;6.13;;
17917;SDS011;9084;50.956;3.106;2023-06-24T02:38:38;6.70;;;6.20;;
17917;SDS011;9084;50.956;3.106;2023-06-24T02:41:06;7.68;;;6.97;;
17917;SDS011;9084;50.956;3.106;2023-06-24T02:43:32;6.72;;;6.13;;
17917;SDS011;9084;50.956;3.106;2023-06-24T02:46:03;6.57;;;5.97;;
17917;SDS011;9084;50.956;3.106;2023-06-24T02:48:30;7.45;;;6.85;;
17917;SDS011;9084;50.956;3.106;2023-06-24T02:50:58;8.52;;;7.03;;
17917;SDS011;9084;50.956;3.106;2023-06-24T02:53:28;7.45;;;6.85;;
17917;SDS011;9084;50.956;3.106;2023-06-24T02:55:55;7.97;;;7.28;;
17917;SDS011;9084;50.956;3.106;2023-06-24T02:58:21;7.38;;;6.70;;
17917;SDS011;9084;50.956;3.106;2023-06-24T03:00:48;6.38;;;5.93;;
17917;SDS011;9084;50.956;3.106;2023-06-24T03:03:14;7.63;;;6.90;;
17917;SDS011;9084;50.956;3.106;2023-06-24T03:05:40;7.70;;;7.10;;
17917;SDS011;9084;50.956;3.106;2023-06-24T03:08:09;7.13;;;6.55;;
17917;SDS011;9084;50.956;3.106;2023-06-24T03:10:36;7.28;;;6.68;;
17917;SDS011;9084;50.956;3.106;2023-06-24T03:13:04;8.05;;;7.35;;
17917;SDS011;9084;50.956;3.106;2023-06-24T03:15:30;7.38;;;6.75;;
17917;SDS011;9084;50.956;3.106;2023-06-24T03:17:56;7.53;;;6.97;;
17917;SDS011;9084;50.956;3.106;2023-06-24T03:20:22;7.47;;;6.88;;
17917;SDS011;9084;50.956;3.106;2023-06-24T03:22:49;7.55;;;6.90;;
17917;SDS011;9084;50.956;3.106;2023-06-24T03:25:14;7.57;;;6.97;;
17917;SDS011;9084;50.956;3.106;2023-06-24T03:27:40;8.18;;;7.47;;
17917;SDS011;9084;50.956;3.106;2023-06-24T03:30:06;7.57;;;6.88;;
17917;SDS011;9084;50.956;3.106;2023-06-24T03:32:34;7.50;;;6.80;;
17917;SDS011;9084;50.956;3.106;2023-06-24T03:35:01;7.35;;;6.75;;
17917;SDS011;9084;50.956;3.106;2023-06-24T03:37:31;7.95;;;7.35;;
17917;SDS011;9084;50.956;3.106;2023-06-24T03:40:00;7.13;;;6.53;;
17917;SDS011;9084;50.956;3.106;2023-06-24T03:42:25;7.47;;;6.78;;
17917;SDS011;9084;50.956;3.106;2023-06-24T03:44:54;7.38;;;6.75;;
17917;SDS011;9084;50.956;3.106;2023-06-24T03:47:20;7.90;;;7.10;;
17917;SDS011;9084;50.956;3.106;2023-06-24T03:49:45;8.35;;;6.43;;
17917;SDS011;9084;50.956;3.106;2023-06-24T03:52:11;6.47;;;5.97;;
17917;SDS011;9084;50.956;3.106;2023-06-24T03:54:39;7.15;;;6.25;;
17917;SDS011;9084;50.956;3.106;2023-06-24T03:57:05;8.02;;;6.80;;
17917;SDS011;9084;50.956;3.106;2023-06-24T03:59:32;6.78;;;6.07;;
17917;SDS011;9084;50.956;3.106;2023-06-24T04:02:00;7.15;;;6.65;;
17917;SDS011;9084;50.956;3.106;2023-06-24T04:04:25;7.63;;;7.00;;
17917;SDS011;9084;50.956;3.106;2023-06-24T04:06:53;7.07;;;6.38;;
17917;SDS011;9084;50.956;3.106;2023-06-24T04:09:19;7.45;;;6.75;;
17917;SDS011;9084;50.956;3.106;2023-06-24T04:11:45;8.25;;;7.57;;
17917;SDS011;9084;50.956;3.106;2023-06-24T04:14:12;8.18;;;7.57;;
17917;SDS011;9084;50.956;3.106;2023-06-24T04:16:40;8.40;;;7.00;;
17917;SDS011;9084;50.956;3.106;2023-06-24T04:19:06;8.40;;;7.70;;
17917;SDS011;9084;50.956;3.106;2023-06-24T04:21:32;8.23;;;7.22;;
17917;SDS011;9084;50.956;3.106;2023-06-24T04:23:57;8.50;;;7.80;;
17917;SDS011;9084;50.956;3.106;2023-06-24T04:26:23;8.57;;;7.78;;
17917;SDS011;9084;50.956;3.106;2023-06-24T04:28:51;8.65;;;7.78;;
17917;SDS011;9084;50.956;3.106;2023-06-24T04:31:17;8.57;;;7.78;;
17917;SDS011;9084;50.956;3.106;2023-06-24T04:33:45;7.45;;;6.90;;
17917;SDS011;9084;50.956;3.106;2023-06-24T04:36:10;8.52;;;7.65;;
17917;SDS011;9084;50.956;3.106;2023-06-24T04:38:36;8.35;;;7.65;;
17917;SDS011;9084;50.956;3.106;2023-06-24T04:41:04;8.60;;;7.80;;
17917;SDS011;9084;50.956;3.106;2023-06-24T04:43:29;7.47;;;6.78;;
17917;SDS011;9084;50.956;3.106;2023-06-24T04:45:55;8.32;;;7.63;;
17917;SDS011;9084;50.956;3.106;2023-06-24T04:48:23;9.18;;;8.30;;
17917;SDS011;9084;50.956;3.106;2023-06-24T04:50:49;8.15;;;7.45;;
17917;SDS011;9084;50.956;3.106;2023-06-24T04:53:15;8.57;;;7.88;;
17917;SDS011;9084;50.956;3.106;2023-06-24T04:55:43;8.55;;;7.85;;
17917;SDS011;9084;50.956;3.106;2023-06-24T04:58:09;8.63;;;7.93;;
17917;SDS011;9084;50.956;3.106;2023-06-24T05:00:34;9.07;;;8.27;;
17917;SDS011;9084;50.956;3.106;2023-06-24T05:03:00;9.35;;;8.55;;
17917;SDS011;9084;50.956;3.106;2023-06-24T05:05:28;9.48;;;8.57;;
17917;SDS011;9084;50.956;3.106;2023-06-24T05:07:56;9.15;;;8.35;;
17917;SDS011;9084;50.956;3.106;2023-06-24T05:10:21;8.73;;;7.95;;
17917;SDS011;9084;50.956;3.106;2023-06-24T05:12:49;8.90;;;8.10;;
17917;SDS011;9084;50.956;3.106;2023-06-24T05:15:17;9.80;;;9.00;;
17917;SDS011;9084;50.956;3.106;2023-06-24T05:17:43;9.50;;;8.63;;
17917;SDS011;9084;50.956;3.106;2023-06-24T05:20:11;8.68;;;7.88;;
17917;SDS011;9084;50.956;3.106;2023-06-24T05:22:37;9.50;;;8.60;;
17917;SDS011;9084;50.956;3.106;2023-06-24T05:25:02;9.77;;;8.85;;
17917;SDS011;9084;50.956;3.106;2023-06-24T05:27:28;9.25;;;8.50;;
17917;SDS011;9084;50.956;3.106;2023-06-24T05:29:54;9.43;;;8.57;;
17917;SDS011;9084;50.956;3.106;2023-06-24T05:32:19;9.57;;;8.70;;
17917;SDS011;9084;50.956;3.106;2023-06-24T05:34:45;9.18;;;8.27;;
17917;SDS011;9084;50.956;3.106;2023-06-24T05:37:11;9.10;;;8.38;;
17917;SDS011;9084;50.956;3.106;2023-06-24T05:39:39;9.93;;;9.00;;
17917;SDS011;9084;50.956;3.106;2023-06-24T05:42:05;9.27;;;8.48;;
17917;SDS011;9084;50.956;3.106;2023-06-24T05:44:30;9.88;;;9.07;;
17917;SDS011;9084;50.956;3.106;2023-06-24T05:46:59;10.23;;;9.40;;
17917;SDS011;9084;50.956;3.106;2023-06-24T05:49:26;9.50;;;8.70;;
17917;SDS011;9084;50.956;3.106;2023-06-24T05:51:52;9.20;;;8.50;;
17917;SDS011;9084;50.956;3.106;2023-06-24T05:54:20;10.38;;;9.35;;
17917;SDS011;9084;50.956;3.106;2023-06-24T05:56:46;10.13;;;9.18;;
17917;SDS011;9084;50.956;3.106;2023-06-24T05:59:11;10.23;;;9.25;;
17917;SDS011;9084;50.956;3.106;2023-06-24T06:01:37;10.05;;;8.90;;
17917;SDS011;9084;50.956;3.106;2023-06-24T06:04:03;10.70;;;9.73;;
17917;SDS011;9084;50.956;3.106;2023-06-24T06:06:28;10.45;;;9.40;;
17917;SDS011;9084;50.956;3.106;2023-06-24T06:08:54;11.77;;;10.77;;
17917;SDS011;9084;50.956;3.106;2023-06-24T06:11:21;11.40;;;10.50;;
17917;SDS011;9084;50.956;3.106;2023-06-24T06:13:49;11.35;;;10.35;;
17917;SDS011;9084;50.956;3.106;2023-06-24T06:16:14;12.18;;;11.13;;
17917;SDS011;9084;50.956;3.106;2023-06-24T06:18:40;11.68;;;10.63;;
17917;SDS011;9084;50.956;3.106;2023-06-24T06:21:08;11.75;;;10.75;;
17917;SDS011;9084;50.956;3.106;2023-06-24T06:23:38;11.93;;;10.82;;
17917;SDS011;9084;50.956;3.106;2023-06-24T06:26:04;12.20;;;11.10;;
17917;SDS011;9084;50.956;3.106;2023-06-24T06:28:33;11.02;;;10.13;;
17917;SDS011;9084;50.956;3.106;2023-06-24T06:30:59;11.57;;;10.68;;
17917;SDS011;9084;50.956;3.106;2023-06-24T06:33:25;11.63;;;10.63;;
17917;SDS011;9084;50.956;3.106;2023-06-24T06:35:51;11.23;;;9.93;;
17917;SDS011;9084;50.956;3.106;2023-06-24T06:38:19;11.90;;;10.90;;
17917;SDS011;9084;50.956;3.106;2023-06-24T06:40:44;11.70;;;10.70;;
17917;SDS011;9084;50.956;3.106;2023-06-24T06:43:10;11.40;;;10.38;;
17917;SDS011;9084;50.956;3.106;2023-06-24T06:45:35;11.50;;;10.52;;
17917;SDS011;9084;50.956;3.106;2023-06-24T06:48:01;11.77;;;10.88;;
17917;SDS011;9084;50.956;3.106;2023-06-24T06:50:32;11.77;;;10.77;;
17917;SDS011;9084;50.956;3.106;2023-06-24T06:52:58;11.20;;;10.20;;
17917;SDS011;9084;50.956;3.106;2023-06-24T06:55:24;11.52;;;10.45;;
17917;SDS011;9084;50.956;3.106;2023-06-24T06:57:49;11.35;;;10.45;;
17917;SDS011;9084;50.956;3.106;2023-06-24T07:00:16;10.90;;;10.00;;
17917;SDS011;9084;50.956;3.106;2023-06-24T07:02:42;12.00;;;11.00;;
17917;SDS011;9084;50.956;3.106;2023-06-24T07:05:09;11.45;;;10.35;;
17917;SDS011;9084;50.956;3.106;2023-06-24T07:07:39;11.68;;;10.77;;
17917;SDS011;9084;50.956;3.106;2023-06-24T07:10:09;11.70;;;10.80;;
17917;SDS011;9084;50.956;3.106;2023-06-24T07:12:38;11.18;;;10.27;;
17917;SDS011;9084;50.956;3.106;2023-06-24T07:15:06;11.38;;;10.43;;
17917;SDS011;9084;50.956;3.106;2023-06-24T07:17:32;10.70;;;9.90;;
17917;SDS011;9084;50.956;3.106;2023-06-24T07:19:57;12.10;;;10.75;;
17917;SDS011;9084;50.956;3.106;2023-06-24T07:22:23;11.23;;;10.15;;
17917;SDS011;9084;50.956;3.106;2023-06-24T07:24:51;10.82;;;9.95;;
17917;SDS011;9084;50.956;3.106;2023-06-24T07:27:16;11.70;;;10.80;;
17917;SDS011;9084;50.956;3.106;2023-06-24T07:29:45;10.85;;;9.95;;
17917;SDS011;9084;50.956;3.106;2023-06-24T07:32:10;10.77;;;9.88;;
17917;SDS011;9084;50.956;3.106;2023-06-24T07:34:36;12.07;;;10.98;;
17917;SDS011;9084;50.956;3.106;2023-06-24T07:37:01;11.80;;;10.80;;
17917;SDS011;9084;50.956;3.106;2023-06-24T07:39:27;11.15;;;10.15;;
17917;SDS011;9084;50.956;3.106;2023-06-24T07:41:53;11.15;;;10.25;;
17917;SDS011;9084;50.956;3.106;2023-06-24T07:44:18;11.88;;;10.82;;
17917;SDS011;9084;50.956;3.106;2023-06-24T07:46:46;10.80;;;9.90;;
17917;SDS011;9084;50.956;3.106;2023-06-24T07:49:13;12.15;;;11.15;;
17917;SDS011;9084;50.956;3.106;2023-06-24T07:51:41;11.43;;;10.40;;
17917;SDS011;9084;50.956;3.106;2023-06-24T07:54:10;10.70;;;9.88;;
17917;SDS011;9084;50.956;3.106;2023-06-24T07:56:36;11.07;;;10.18;;
17917;SDS011;9084;50.956;3.106;2023-06-24T07:59:02;11.93;;;9.85;;
17917;SDS011;9084;50.956;3.106;2023-06-24T08:01:28;11.52;;;10.52;;
17917;SDS011;9084;50.956;3.106;2023-06-24T08:03:53;11.50;;;10.60;;
17917;SDS011;9084;50.956;3.106;2023-06-24T08:06:21;11.20;;;10.20;;
17917;SDS011;9084;50.956;3.106;2023-06-24T08:08:47;11.73;;;10.68;;
17917;SDS011;9084;50.956;3.106;2023-06-24T08:11:13;11.45;;;10.35;;
17917;SDS011;9084;50.956;3.106;2023-06-24T08:13:39;10.27;;;9.48;;
17917;SDS011;9084;50.956;3.106;2023-06-24T08:16:05;11.60;;;10.65;;
17917;SDS011;9084;50.956;3.106;2023-06-24T08:18:33;11.40;;;10.45;;
17917;SDS011;9084;50.956;3.106;2023-06-24T08:20:58;11.10;;;10.30;;
17917;SDS011;9084;50.956;3.106;2023-06-24T08:23:24;11.88;;;10.93;;
17917;SDS011;9084;50.956;3.106;2023-06-24T08:25:50;10.85;;;10.02;;
17917;SDS011;9084;50.956;3.106;2023-06-24T08:28:15;11.00;;;10.10;;
17917;SDS011;9084;50.956;3.106;2023-06-24T08:30:41;11.80;;;10.90;;
17917;SDS011;9084;50.956;3.106;2023-06-24T08:33:07;12.15;;;11.13;;
17917;SDS011;9084;50.956;3.106;2023-06-24T08:35:32;11.82;;;10.93;;
17917;SDS011;9084;50.956;3.106;2023-06-24T08:37:58;12.55;;;11.45;;
17917;SDS011;9084;50.956;3.106;2023-06-24T08:40:23;12.15;;;11.23;;
17917;SDS011;9084;50.956;3.106;2023-06-24T08:42:49;11.65;;;10.70;;
17917;SDS011;9084;50.956;3.106;2023-06-24T08:45:17;12.10;;;11.10;;
17917;SDS011;9084;50.956;3.106;2023-06-24T08:47:43;11.82;;;10.80;;
17917;SDS011;9084;50.956;3.106;2023-06-24T08:50:11;10.68;;;9.68;;
17917;SDS011;9084;50.956;3.106;2023-06-24T08:52:45;11.52;;;10.60;;
17917;SDS011;9084;50.956;3.106;2023-06-24T08:55:16;11.90;;;10.82;;
17917;SDS011;9084;50.956;3.106;2023-06-24T08:57:45;11.07;;;10.02;;
17917;SDS011;9084;50.956;3.106;2023-06-24T09:00:11;11.43;;;10.52;;
17917;SDS011;9084;50.956;3.106;2023-06-24T09:02:40;11.77;;;10.77;;
17917;SDS011;9084;50.956;3.106;2023-06-24T09:05:06;11.52;;;10.60;;
17917;SDS011;9084;50.956;3.106;2023-06-24T09:07:32;10.38;;;9.57;;
17917;SDS011;9084;50.956;3.106;2023-06-24T09:09:58;10.98;;;10.07;;
17917;SDS011;9084;50.956;3.106;2023-06-24T09:12:28;12.38;;;11.25;;
17917;SDS011;9084;50.956;3.106;2023-06-24T09:14:57;11.52;;;10.45;;
17917;SDS011;9084;50.956;3.106;2023-06-24T09:17:27;10.93;;;9.98;;
17917;SDS011;9084;50.956;3.106;2023-06-24T09:20:02;10.38;;;9.57;;
17917;SDS011;9084;50.956;3.106;2023-06-24T09:22:29;11.45;;;10.38;;
17917;SDS011;9084;50.956;3.106;2023-06-24T09:24:55;10.43;;;9.52;;
17917;SDS011;9084;50.956;3.106;2023-06-24T09:27:21;9.80;;;9.05;;
17917;SDS011;9084;50.956;3.106;2023-06-24T09:29:48;10.02;;;9.13;;
17917;SDS011;9084;50.956;3.106;2023-06-24T09:32:14;10.23;;;9.35;;
17917;SDS011;9084;50.956;3.106;2023-06-24T09:34:40;10.30;;;9.50;;
17917;SDS011;9084;50.956;3.106;2023-06-24T09:37:05;9.05;;;8.25;;
17917;SDS011;9084;50.956;3.106;2023-06-24T09:39:35;9.60;;;8.80;;
17917;SDS011;9084;50.956;3.106;2023-06-24T09:42:05;9.10;;;8.30;;
17917;SDS011;9084;50.956;3.106;2023-06-24T09:44:32;8.60;;;7.97;;
17917;SDS011;9084;50.956;3.106;2023-06-24T09:46:58;8.23;;;7.43;;
17917;SDS011;9084;50.956;3.106;2023-06-24T09:49:26;8.05;;;7.45;;
17917;SDS011;9084;50.956;3.106;2023-06-24T09:51:58;8.73;;;7.75;;
17917;SDS011;9084;50.956;3.106;2023-06-24T09:54:26;5.07;;;4.68;;
17917;SDS011;9084;50.956;3.106;2023-06-24T09:56:57;4.68;;;4.38;;
17917;SDS011;9084;50.956;3.106;2023-06-24T09:59:26;5.82;;;5.38;;
17917;SDS011;9084;50.956;3.106;2023-06-24T10:01:55;4.85;;;4.45;;
17917;SDS011;9084;50.956;3.106;2023-06-24T10:04:22;4.45;;;4.05;;
17917;SDS011;9084;50.956;3.106;2023-06-24T10:06:48;5.10;;;4.70;;
17917;SDS011;9084;50.956;3.106;2023-06-24T10:09:14;6.40;;;5.85;;
17917;SDS011;9084;50.956;3.106;2023-06-24T10:11:44;5.10;;;4.70;;
17917;SDS011;9084;50.956;3.106;2023-06-24T10:14:11;6.90;;;5.88;;
17917;SDS011;9084;50.956;3.106;2023-06-24T10:16:37;6.22;;;5.72;;
17917;SDS011;9084;50.956;3.106;2023-06-24T10:19:05;5.38;;;4.97;;
17917;SDS011;9084;50.956;3.106;2023-06-24T10:24:28;5.45;;;5.05;;
17917;SDS011;9084;50.956;3.106;2023-06-24T10:26:54;6.05;;;5.55;;
17917;SDS011;9084;50.956;3.106;2023-06-24T10:29:34;7.10;;;6.53;;
17917;SDS011;9084;50.956;3.106;2023-06-24T10:32:09;7.38;;;6.78;;
17917;SDS011;9084;50.956;3.106;2023-06-24T10:34:39;6.72;;;6.13;;
17917;SDS011;9084;50.956;3.106;2023-06-24T10:44:48;6.43;;;5.93;;
17917;SDS011;9084;50.956;3.106;2023-06-24T10:47:14;8.00;;;7.40;;
17917;SDS011;9084;50.956;3.106;2023-06-24T10:49:40;7.13;;;6.43;;
17917;SDS011;9084;50.956;3.106;2023-06-24T10:52:12;7.45;;;6.93;;
17917;SDS011;9084;50.956;3.106;2023-06-24T10:54:38;8.13;;;7.25;;
17917;SDS011;9084;50.956;3.106;2023-06-24T10:57:07;7.13;;;6.43;;
17917;SDS011;9084;50.956;3.106;2023-06-24T10:59:40;7.38;;;6.78;;
17917;SDS011;9084;50.956;3.106;2023-06-24T11:02:15;7.03;;;6.40;;
17917;SDS011;9084;50.956;3.106;2023-06-24T11:07:14;8.10;;;7.45;;
17917;SDS011;9084;50.956;3.106;2023-06-24T11:09:42;7.28;;;6.32;;
17917;SDS011;9084;50.956;3.106;2023-06-24T11:12:13;7.75;;;7.05;;
17917;SDS011;9084;50.956;3.106;2023-06-24T11:14:39;6.82;;;6.32;;
17917;SDS011;9084;50.956;3.106;2023-06-24T11:17:07;6.95;;;6.35;;
17917;SDS011;9084;50.956;3.106;2023-06-24T11:19:33;7.18;;;6.35;;
17917;SDS011;9084;50.956;3.106;2023-06-24T11:22:04;6.75;;;6.25;;
17917;SDS011;9084;50.956;3.106;2023-06-24T11:24:31;6.40;;;5.80;;
17917;SDS011;9084;50.956;3.106;2023-06-24T11:26:57;5.28;;;4.85;;
17917;SDS011;9084;50.956;3.106;2023-06-24T11:29:28;5.07;;;4.72;;
17917;SDS011;9084;50.956;3.106;2023-06-24T11:31:57;4.00;;;3.70;;
17917;SDS011;9084;50.956;3.106;2023-06-24T11:34:22;5.18;;;4.78;;
17917;SDS011;9084;50.956;3.106;2023-06-24T11:36:48;4.70;;;4.28;;
17917;SDS011;9084;50.956;3.106;2023-06-24T11:39:26;5.20;;;4.80;;
17917;SDS011;9084;50.956;3.106;2023-06-24T11:41:53;5.70;;;4.60;;
17917;SDS011;9084;50.956;3.106;2023-06-24T11:44:23;5.20;;;4.80;;
17917;SDS011;9084;50.956;3.106;2023-06-24T11:46:49;4.88;;;4.47;;
17917;SDS011;9084;50.956;3.106;2023-06-24T11:49:15;5.60;;;4.65;;
17917;SDS011;9084;50.956;3.106;2023-06-24T11:51:48;4.20;;;3.85;;
17917;SDS011;9084;50.956;3.106;2023-06-24T11:54:20;3.75;;;3.45;;
17917;SDS011;9084;50.956;3.106;2023-06-24T11:56:49;4.75;;;4.05;;
17917;SDS011;9084;50.956;3.106;2023-06-24T11:59:23;4.05;;;3.70;;
17917;SDS011;9084;50.956;3.106;2023-06-24T12:01:55;3.53;;;3.22;;
17917;SDS011;9084;50.956;3.106;2023-06-24T12:04:31;3.55;;;3.25;;
17917;SDS011;9084;50.956;3.106;2023-06-24T12:06:58;2.97;;;2.78;;
17917;SDS011;9084;50.956;3.106;2023-06-24T12:09:27;3.20;;;3.00;;
17917;SDS011;9084;50.956;3.106;2023-06-24T12:11:54;3.08;;;2.60;;
17917;SDS011;9084;50.956;3.106;2023-06-24T12:14:20;2.92;;;2.72;;
17917;SDS011;9084;50.956;3.106;2023-06-24T12:16:48;3.08;;;2.50;;
17917;SDS011;9084;50.956;3.106;2023-06-24T12:19:16;2.53;;;2.28;;
17917;SDS011;9084;50.956;3.106;2023-06-24T12:21:44;2.40;;;2.03;;
17917;SDS011;9084;50.956;3.106;2023-06-24T12:24:09;2.10;;;2.00;;
17917;SDS011;9084;50.956;3.106;2023-06-24T12:26:38;2.22;;;1.83;;
17917;SDS011;9084;50.956;3.106;2023-06-24T12:29:03;1.58;;;1.48;;
17917;SDS011;9084;50.956;3.106;2023-06-24T12:31:29;2.15;;;1.75;;
17917;SDS011;9084;50.956;3.106;2023-06-24T12:33:55;1.50;;;1.40;;
17917;SDS011;9084;50.956;3.106;2023-06-24T12:36:23;2.35;;;2.00;;
17917;SDS011;9084;50.956;3.106;2023-06-24T12:38:53;2.03;;;1.90;;
17917;SDS011;9084;50.956;3.106;2023-06-24T12:41:21;1.90;;;1.77;;
17917;SDS011;9084;50.956;3.106;2023-06-24T12:43:49;2.40;;;2.20;;
17917;SDS011;9084;50.956;3.106;2023-06-24T12:46:17;3.15;;;2.90;;
17917;SDS011;9084;50.956;3.106;2023-06-24T12:48:46;2.47;;;2.28;;
17917;SDS011;9084;50.956;3.106;2023-06-24T12:51:11;2.53;;;2.35;;
17917;SDS011;9084;50.956;3.106;2023-06-24T12:53:39;2.67;;;2.05;;
17917;SDS011;9084;50.956;3.106;2023-06-24T12:56:05;2.67;;;2.47;;
17917;SDS011;9084;50.956;3.106;2023-06-24T12:58:31;3.03;;;2.72;;
17917;SDS011;9084;50.956;3.106;2023-06-24T13:00:59;2.03;;;1.80;;
17917;SDS011;9084;50.956;3.106;2023-06-24T13:03:25;2.67;;;1.83;;
17917;SDS011;9084;50.956;3.106;2023-06-24T13:05:52;2.28;;;2.08;;
17917;SDS011;9084;50.956;3.106;2023-06-24T13:08:22;1.80;;;1.70;;
17917;SDS011;9084;50.956;3.106;2023-06-24T13:10:47;1.80;;;1.70;;
17917;SDS011;9084;50.956;3.106;2023-06-24T13:13:13;1.50;;;1.40;;
17917;SDS011;9084;50.956;3.106;2023-06-24T13:15:39;2.20;;;2.00;;
17917;SDS011;9084;50.956;3.106;2023-06-24T13:18:04;2.03;;;1.80;;
17917;SDS011;9084;50.956;3.106;2023-06-24T13:20:30;1.88;;;1.73;;
17917;SDS011;9084;50.956;3.106;2023-06-24T13:22:56;1.60;;;1.48;;
17917;SDS011;9084;50.956;3.106;2023-06-24T13:25:21;1.95;;;1.75;;
17917;SDS011;9084;50.956;3.106;2023-06-24T13:27:49;1.90;;;1.63;;
17917;SDS011;9084;50.956;3.106;2023-06-24T13:30:15;1.48;;;1.38;;
17917;SDS011;9084;50.956;3.106;2023-06-24T13:32:41;2.70;;;1.73;;
17917;SDS011;9084;50.956;3.106;2023-06-24T13:35:07;2.97;;;2.15;;
17917;SDS011;9084;50.956;3.106;2023-06-24T13:37:35;1.75;;;1.65;;
17917;SDS011;9084;50.956;3.106;2023-06-24T13:40:01;1.98;;;1.77;;
17917;SDS011;9084;50.956;3.106;2023-06-24T13:42:30;2.65;;;1.50;;
17917;SDS011;9084;50.956;3.106;2023-06-24T13:44:58;1.27;;;1.17;;
17917;SDS011;9084;50.956;3.106;2023-06-24T13:47:29;1.40;;;1.30;;
17917;SDS011;9084;50.956;3.106;2023-06-24T13:49:54;1.75;;;1.65;;
17917;SDS011;9084;50.956;3.106;2023-06-24T13:52:24;1.48;;;1.38;;
17917;SDS011;9084;50.956;3.106;2023-06-24T13:54:51;1.58;;;1.42;;
17917;SDS011;9084;50.956;3.106;2023-06-24T13:57:16;2.05;;;1.80;;
17917;SDS011;9084;50.956;3.106;2023-06-24T13:59:44;2.40;;;1.50;;
17917;SDS011;9084;50.956;3.106;2023-06-24T14:02:10;2.55;;;1.92;;
17917;SDS011;9084;50.956;3.106;2023-06-24T14:04:36;1.95;;;1.85;;
17917;SDS011;9084;50.956;3.106;2023-06-24T14:07:04;1.73;;;1.63;;
17917;SDS011;9084;50.956;3.106;2023-06-24T14:09:36;4.35;;;1.77;;
17917;SDS011;9084;50.956;3.106;2023-06-24T14:12:04;1.90;;;1.80;;
17917;SDS011;9084;50.956;3.106;2023-06-24T14:14:30;1.98;;;1.50;;
17917;SDS011;9084;50.956;3.106;2023-06-24T14:16:55;1.63;;;1.52;;
17917;SDS011;9084;50.956;3.106;2023-06-24T14:19:21;1.23;;;1.13;;
17917;SDS011;9084;50.956;3.106;2023-06-24T14:21:47;2.55;;;1.48;;
17917;SDS011;9084;50.956;3.106;2023-06-24T14:24:12;1.63;;;1.52;;
17917;SDS011;9084;50.956;3.106;2023-06-24T14:26:38;1.63;;;1.52;;
17917;SDS011;9084;50.956;3.106;2023-06-24T14:29:07;2.17;;;1.98;;
17917;SDS011;9084;50.956;3.106;2023-06-24T14:31:34;2.38;;;1.80;;
17917;SDS011;9084;50.956;3.106;2023-06-24T14:34:00;1.73;;;1.63;;
17917;SDS011;9084;50.956;3.106;2023-06-24T14:36:26;2.00;;;1.80;;
17917;SDS011;9084;50.956;3.106;2023-06-24T14:38:54;1.58;;;1.45;;
17917;SDS011;9084;50.956;3.106;2023-06-24T14:41:19;1.60;;;1.33;;
17917;SDS011;9084;50.956;3.106;2023-06-24T14:43:45;1.65;;;1.55;;
17917;SDS011;9084;50.956;3.106;2023-06-24T14:46:11;1.50;;;1.40;;
17917;SDS011;9084;50.956;3.106;2023-06-24T14:48:41;1.95;;;1.73;;
17917;SDS011;9084;50.956;3.106;2023-06-24T14:51:08;1.60;;;1.50;;
17917;SDS011;9084;50.956;3.106;2023-06-24T14:53:36;1.55;;;1.45;;
17917;SDS011;9084;50.956;3.106;2023-06-24T14:56:02;1.88;;;1.38;;
17917;SDS011;9084;50.956;3.106;2023-06-24T14:58:30;2.10;;;1.90;;
17917;SDS011;9084;50.956;3.106;2023-06-24T15:00:55;1.90;;;1.80;;
17917;SDS011;9084;50.956;3.106;2023-06-24T15:03:23;2.15;;;1.95;;
17917;SDS011;9084;50.956;3.106;2023-06-24T15:05:49;1.88;;;1.70;;
17917;SDS011;9084;50.956;3.106;2023-06-24T15:08:15;2.03;;;1.85;;
17917;SDS011;9084;50.956;3.106;2023-06-24T15:10:40;1.90;;;1.65;;
17917;SDS011;9084;50.956;3.106;2023-06-24T15:13:06;2.80;;;1.92;;
17917;SDS011;9084;50.956;3.106;2023-06-24T15:15:31;2.30;;;2.03;;
17917;SDS011;9084;50.956;3.106;2023-06-24T15:17:57;2.30;;;2.10;;
17917;SDS011;9084;50.956;3.106;2023-06-24T15:20:24;1.63;;;1.52;;
17917;SDS011;9084;50.956;3.106;2023-06-24T15:22:50;2.63;;;1.75;;
17917;SDS011;9084;50.956;3.106;2023-06-24T15:25:16;1.83;;;1.20;;